Time;durP1;ratioP1;P1;durP2;ratioP2;P2;SDS_P1;SDS_P2;PMS_P1;PMS_P2;Temp;Humidity;BMP_temperature;BMP_pressure;BME280_temperature;BME280_humidity;BME280_pressure;Samples;Min_cycle;Max_cycle;Signal;HPM_P1;HPM_P2
2022/12/22 03:27:16;;;;;;;;;;;7.90;99.90;;;;;;5060719;28;20350;-93
2022/12/22 03:29:41;;;;;;;;;;;7.80;99.90;;;;;;5033258;28;19924;-94
2022/12/22 03:32:07;;;;;;;;;;;7.90;99.90;;;;;;5024521;28;19924;-93
2022/12/22 03:34:32;;;;;;;;;;;7.90;99.90;;;;;;5017315;28;19927;-94
2022/12/22 03:36:58;;;;;;;;;;;7.90;99.90;;;;;;4946910;28;19926;-94
2022/12/22 03:39:24;;;;;;;;;;;7.90;99.90;;;;;;4963162;28;19964;-92
2022/12/22 03:47:18;;;;;;;;;;;7.80;99.90;;;;;;4963913;28;19932;-93
2022/12/22 03:49:43;;;;;;;;;;;8.30;99.90;;;;;;5042341;28;19925;-93
2022/12/22 03:52:09;;;;;;;;;;;7.90;99.90;;;;;;5026245;28;19968;-93
2022/12/22 03:54:35;;;;;;;;;;;7.80;99.90;;;;;;5028144;28;19936;-93
2022/12/22 03:57:00;;;;;;;;;;;7.90;99.90;;;;;;5049431;28;19924;-94
2022/12/22 03:59:26;;;;;;;;;;;7.90;99.90;;;;;;5048300;28;19935;-94
2022/12/22 04:01:52;;;;;;;;;;;7.80;99.90;;;;;;5011201;28;19926;-94
2022/12/22 04:04:20;;;;;;;;;;;7.80;99.90;;;;;;5056630;28;19927;-93
2022/12/22 04:06:46;;;;;;;;;;;7.90;99.90;;;;;;5062220;28;19926;-95
2022/12/22 04:09:11;;;;;;;;;;;7.90;99.90;;;;;;5045324;28;19924;-96
2022/12/22 04:14:22;;;;;;;;;;;7.80;99.90;;;;;;5062970;28;19954;-96
2022/12/22 04:16:47;;;;;;;;;;;7.90;99.90;;;;;;5053830;28;20345;-96
2022/12/22 04:19:14;;;;;;;;;;;7.90;99.90;;;;;;5063014;28;20296;-94
2022/12/22 04:21:40;;;;;;;;;;;7.90;99.90;;;;;;5036115;28;19931;-94
2022/12/22 04:24:06;;;;;;;;;;;7.90;99.90;;;;;;5044783;28;19928;-94
2022/12/22 04:26:32;;;;;;;;;;;7.80;99.90;;;;;;5060954;28;19924;-95
2022/12/22 04:28:58;;;;;;;;;;;7.90;99.90;;;;;;5051836;28;19924;-95
2022/12/22 04:31:24;;;;;;;;;;;7.90;99.90;;;;;;5060520;28;19988;-95
2022/12/22 04:33:49;;;;;;;;;;;7.90;99.90;;;;;;5037861;28;19924;-94
2022/12/22 04:36:15;;;;;;;;;;;7.90;99.90;;;;;;5049597;28;19924;-95
2022/12/22 04:38:41;;;;;;;;;;;7.90;99.90;;;;;;5051402;28;19931;-95
2022/12/22 04:41:07;;;;;;;;;;;7.80;99.90;;;;;;5049159;28;19959;-95
2022/12/22 04:43:33;;;;;;;;;;;7.80;99.90;;;;;;5062677;28;19972;-95
2022/12/22 04:45:59;;;;;;;;;;;7.80;99.90;;;;;;5048331;28;20334;-94
2022/12/22 04:48:25;;;;;;;;;;;7.90;99.90;;;;;;5023826;28;19966;-94
2022/12/22 04:50:55;;;;;;;;;;;7.80;99.90;;;;;;5048131;28;20367;-94
2022/12/22 04:53:21;;;;;;;;;;;8.20;99.90;;;;;;5045700;28;20822;-95
2022/12/22 04:55:48;;;;;;;;;;;7.80;99.90;;;;;;5052697;28;19979;-94
2022/12/22 04:58:14;;;;;;;;;;;7.80;99.90;;;;;;5053519;28;19951;-94
2022/12/22 05:00:39;;;;;;;;;;;7.80;99.90;;;;;;5049388;28;19925;-96
2022/12/22 05:03:06;;;;;;;;;;;7.80;99.90;;;;;;5047201;28;19925;-95
2022/12/22 05:05:31;;;;;;;;;;;6.90;99.90;;;;;;5041244;28;19925;-95
2022/12/22 05:07:57;;;;;;;;;;;8.10;99.90;;;;;;4979051;28;19933;-95
2022/12/22 05:10:23;;;;;;;;;;;7.80;99.90;;;;;;4970666;28;20288;-94
2022/12/22 05:12:54;;;;;;;;;;;7.70;99.90;;;;;;5035414;28;19934;-94
2022/12/22 05:15:24;;;;;;;;;;;7.70;99.90;;;;;;5038156;28;19937;-95
2022/12/22 05:17:50;;;;;;;;;;;7.70;99.90;;;;;;5036705;28;19981;-94
2022/12/22 05:20:16;;;;;;;;;;;7.70;99.90;;;;;;5023601;28;19983;-94
2022/12/22 05:22:47;;;;;;;;;;;7.70;99.90;;;;;;5032210;28;19952;-93
2022/12/22 05:25:15;;;;;;;;;;;7.70;99.90;;;;;;5012650;28;19926;-96
2022/12/22 05:27:42;;;;;;;;;;;7.60;99.90;;;;;;5034934;28;20366;-94
2022/12/22 05:30:07;;;;;;;;;;;7.60;99.90;;;;;;5012203;28;19926;-93
2022/12/22 05:32:34;;;;;;;;;;;7.60;99.90;;;;;;5014409;28;20402;-95
2022/12/22 05:35:00;;;;;;;;;;;7.60;99.90;;;;;;5018150;28;20352;-93
2022/12/22 05:37:26;;;;;;;;;;;7.60;99.90;;;;;;4994146;28;19930;-93
2022/12/22 05:39:51;;;;;;;;;;;7.60;99.90;;;;;;5028275;28;19926;-94
2022/12/22 05:42:34;;;;;;;;;;;7.60;99.90;;;;;;5027373;28;19930;-95
2022/12/22 05:45:01;;;;;;;;;;;7.60;99.90;;;;;;5033262;28;19980;-94
2022/12/22 05:47:27;;;;;;;;;;;7.60;99.90;;;;;;5029351;28;19927;-94
2022/12/22 05:49:53;;;;;;;;;;;7.50;99.90;;;;;;5047541;28;20379;-94
2022/12/22 05:52:18;;;;;;;;;;;7.50;99.90;;;;;;5031641;28;19926;-96
2022/12/22 05:54:44;;;;;;;;;;;7.50;99.90;;;;;;5031469;28;19937;-93
2022/12/22 05:57:10;;;;;;;;;;;7.40;99.90;;;;;;5031465;28;19927;-95
2022/12/22 05:59:35;;;;;;;;;;;7.40;99.90;;;;;;5010770;28;19968;-96
2022/12/22 06:02:01;;;;;;;;;;;7.40;99.90;;;;;;5025059;28;20062;-95
2022/12/22 06:04:30;;;;;;;;;;;7.40;99.90;;;;;;5058059;28;19926;-94
2022/12/22 06:06:55;;;;;;;;;;;7.30;99.90;;;;;;5022103;28;19941;-93
2022/12/22 06:09:21;;;;;;;;;;;7.30;99.90;;;;;;4989571;28;20013;-94
2022/12/22 06:11:47;;;;;;;;;;;7.30;99.90;;;;;;5013080;28;19926;-95
2022/12/22 06:14:13;;;;;;;;;;;7.30;99.90;;;;;;5022623;28;19926;-95
2022/12/22 06:16:38;;;;;;;;;;;7.30;99.90;;;;;;5029223;28;19972;-95
2022/12/22 06:19:04;;;;;;;;;;;7.30;99.90;;;;;;5013928;28;19926;-93
2022/12/22 06:21:30;;;;;;;;;;;7.20;99.90;;;;;;5027857;28;19928;-96
2022/12/22 06:23:55;;;;;;;;;;;7.20;99.90;;;;;;5031283;28;19930;-94
2022/12/22 06:26:21;;;;;;;;;;;7.10;99.90;;;;;;5031716;28;19925;-95
2022/12/22 06:28:47;;;;;;;;;;;7.10;99.90;;;;;;5025459;28;19966;-95
2022/12/22 06:31:12;;;;;;;;;;;7.00;99.90;;;;;;5030150;28;19926;-95
2022/12/22 06:33:38;;;;;;;;;;;7.00;99.90;;;;;;5030328;28;19989;-95
2022/12/22 06:36:07;;;;;;;;;;;6.90;99.90;;;;;;5020101;28;19926;-96
2022/12/22 06:38:33;;;;;;;;;;;6.80;99.90;;;;;;5048021;28;19933;-93
2022/12/22 06:40:59;;;;;;;;;;;6.80;99.90;;;;;;5034952;28;20500;-95
2022/12/22 06:43:25;;;;;;;;;;;6.70;99.90;;;;;;5036596;28;19931;-94
2022/12/22 06:45:51;;;;;;;;;;;6.60;99.90;;;;;;5027370;28;19981;-94
2022/12/22 06:48:17;;;;;;;;;;;6.50;99.90;;;;;;5030519;28;19922;-94
2022/12/22 06:50:43;;;;;;;;;;;6.40;99.90;;;;;;5031211;28;19925;-94
2022/12/22 06:53:09;;;;;;;;;;;6.30;99.90;;;;;;5047789;28;19926;-96
2022/12/22 06:55:35;;;;;;;;;;;6.20;99.90;;;;;;5029412;28;19949;-95
2022/12/22 06:58:01;;;;;;;;;;;6.20;99.90;;;;;;5007351;28;19935;-94
2022/12/22 07:00:27;;;;;;;;;;;6.10;99.90;;;;;;5028674;28;19933;-94
2022/12/22 07:02:52;;;;;;;;;;;6.10;99.90;;;;;;5001483;28;19982;-96
2022/12/22 07:05:18;;;;;;;;;;;6.00;99.90;;;;;;5011722;28;19934;-94
2022/12/22 07:07:44;;;;;;;;;;;5.90;99.90;;;;;;5029568;28;20757;-94
2022/12/22 07:10:10;;;;;;;;;;;5.90;99.90;;;;;;4943168;28;20408;-94
2022/12/22 07:12:35;;;;;;;;;;;5.80;99.90;;;;;;5032060;28;19930;-96
2022/12/22 07:15:01;;;;;;;;;;;5.90;99.90;;;;;;5037794;28;19926;-95
2022/12/22 07:17:27;;;;;;;;;;;5.90;99.90;;;;;;5016913;28;20544;-93
2022/12/22 07:19:52;;;;;;;;;;;5.90;99.90;;;;;;5044015;28;19935;-95
2022/12/22 07:22:18;;;;;;;;;;;6.00;99.90;;;;;;4952266;28;19926;-94
2022/12/22 07:24:44;;;;;;;;;;;6.00;99.90;;;;;;5046354;28;19976;-96
2022/12/22 07:27:09;;;;;;;;;;;6.10;99.90;;;;;;5011353;28;19958;-95
2022/12/22 07:29:35;;;;;;;;;;;6.10;99.90;;;;;;5039156;28;19926;-93
2022/12/22 07:32:01;;;;;;;;;;;6.10;99.90;;;;;;5032836;28;19922;-93
2022/12/22 07:34:27;;;;;;;;;;;6.10;99.90;;;;;;5045160;28;19923;-93
2022/12/22 07:36:53;;;;;;;;;;;6.10;99.90;;;;;;5059042;28;19928;-93
2022/12/22 07:39:18;;;;;;;;;;;6.00;99.90;;;;;;5020857;28;19922;-95
2022/12/22 07:44:28;;;;;;;;;;;5.90;99.90;;;;;;4964940;28;20487;-94
2022/12/22 07:46:54;;;;;;;;;;;5.90;99.90;;;;;;5021841;28;19930;-94
2022/12/22 07:52:04;;;;;;;;;;;5.80;99.90;;;;;;5038000;28;19923;-93
2022/12/22 07:54:30;;;;;;;;;;;5.70;99.90;;;;;;5045180;28;19922;-94
2022/12/22 07:56:56;;;;;;;;;;;5.70;99.90;;;;;;4991180;28;19930;-94
2022/12/22 07:59:21;;;;;;;;;;;5.70;99.90;;;;;;5043618;28;19927;-95
2022/12/22 08:01:47;;;;;;;;;;;5.70;99.90;;;;;;5031996;28;20387;-95
2022/12/22 08:04:13;;;;;;;;;;;5.80;99.90;;;;;;5027171;28;19983;-94
2022/12/22 08:06:39;;;;;;;;;;;5.80;99.90;;;;;;5027833;28;19926;-94
2022/12/22 08:09:08;;;;;;;;;;;5.80;99.90;;;;;;5025523;28;19926;-95
2022/12/22 08:11:34;;;;;;;;;;;5.80;99.90;;;;;;5028542;28;19926;-96
2022/12/22 08:14:00;;;;;;;;;;;5.40;99.90;;;;;;5023961;28;19933;-94
2022/12/22 08:16:25;;;;;;;;;;;5.80;99.90;;;;;;5012483;28;19934;-95
2022/12/22 08:18:52;;;;;;;;;;;5.80;99.90;;;;;;5024463;28;20394;-95
2022/12/22 08:21:18;;;;;;;;;;;5.80;99.90;;;;;;4956569;28;19934;-95
2022/12/22 08:23:44;;;;;;;;;;;5.80;99.90;;;;;;5029469;28;19926;-94
2022/12/22 08:26:10;;;;;;;;;;;5.70;99.90;;;;;;5013774;28;19927;-94
2022/12/22 08:28:39;;;;;;;;;;;5.80;99.90;;;;;;5014879;28;20463;-95
2022/12/22 08:31:06;;;;;;;;;;;5.70;99.90;;;;;;5044537;28;20437;-95
2022/12/22 08:33:31;;;;;;;;;;;5.80;99.90;;;;;;5031267;28;19930;-93
2022/12/22 08:35:57;;;;;;;;;;;5.80;99.90;;;;;;5027588;28;19972;-95
2022/12/22 08:38:23;;;;;;;;;;;5.80;99.90;;;;;;5028626;28;20397;-94
2022/12/22 08:40:49;;;;;;;;;;;5.80;99.90;;;;;;4958513;28;19951;-95
2022/12/22 08:43:15;;;;;;;;;;;5.80;99.90;;;;;;5025816;28;19952;-95
2022/12/22 08:45:41;;;;;;;;;;;5.80;99.90;;;;;;5028733;28;19926;-95
2022/12/22 08:48:08;;;;;;;;;;;5.80;99.90;;;;;;5026129;28;19934;-94
2022/12/22 08:50:34;;;;;;;;;;;5.80;99.90;;;;;;5027002;28;19930;-94
2022/12/22 08:53:03;;;;;;;;;;;5.80;99.90;;;;;;5025024;28;19926;-95
2022/12/22 08:55:29;;;;;;;;;;;5.90;99.90;;;;;;5044379;28;19928;-93
2022/12/22 08:57:54;;;;;;;;;;;5.80;99.90;;;;;;5025793;28;19972;-94
2022/12/22 09:00:20;;;;;;;;;;;5.80;99.90;;;;;;5024334;28;19933;-96
2022/12/22 09:02:46;;;;;;;;;;;5.80;99.90;;;;;;5025059;28;19928;-95
2022/12/22 09:05:12;;;;;;;;;;;5.90;99.90;;;;;;5028774;28;19932;-95
2022/12/22 09:07:38;;;;;;;;;;;5.90;99.90;;;;;;5032438;28;19944;-95
2022/12/22 09:10:03;;;;;;;;;;;5.90;99.90;;;;;;5042433;28;19952;-93
2022/12/22 09:12:29;;;;;;;;;;;5.90;99.90;;;;;;5049385;28;19932;-95
2022/12/22 09:14:55;;;;;;;;;;;5.90;99.90;;;;;;5062509;28;19924;-94
2022/12/22 09:17:21;;;;;;;;;;;5.90;99.90;;;;;;5054916;28;19940;-94
2022/12/22 09:19:47;;;;;;;;;;;6.00;99.90;;;;;;5050047;28;19931;-94
2022/12/22 09:22:12;;;;;;;;;;;6.00;99.90;;;;;;5027856;28;19928;-96
2022/12/22 09:24:38;;;;;;;;;;;6.00;99.90;;;;;;5049168;28;19931;-94
2022/12/22 09:27:05;;;;;;;;;;;6.00;99.90;;;;;;5054583;28;19990;-94
2022/12/22 09:29:31;;;;;;;;;;;6.00;99.90;;;;;;5043917;28;20382;-96
2022/12/22 09:32:03;;;;;;;;;;;5.90;99.90;;;;;;5034450;28;19995;-93
2022/12/22 09:34:29;;;;;;;;;;;5.80;99.90;;;;;;5048261;28;19925;-95
2022/12/22 09:36:54;;;;;;;;;;;5.10;99.90;;;;;;5049054;28;19947;-95
2022/12/22 09:39:20;;;;;;;;;;;5.80;99.90;;;;;;5030870;28;20429;-95
2022/12/22 09:41:46;;;;;;;;;;;5.80;99.90;;;;;;5050521;28;19928;-96
2022/12/22 09:44:27;;;;;;;;;;;5.80;99.90;;;;;;5063022;28;19924;-95
2022/12/22 09:46:54;;;;;;;;;;;5.70;99.90;;;;;;5048775;28;19928;-94
2022/12/22 09:49:21;;;;;;;;;;;5.70;99.90;;;;;;5041622;28;19972;-94
2022/12/22 09:51:49;;;;;;;;;;;5.70;99.90;;;;;;5040398;28;19925;-93
2022/12/22 09:54:15;;;;;;;;;;;5.70;99.90;;;;;;5060712;28;19975;-95
2022/12/22 09:56:41;;;;;;;;;;;5.70;99.90;;;;;;5049857;28;19924;-94
2022/12/22 09:59:09;;;;;;;;;;;5.70;99.90;;;;;;5051025;28;19924;-94
2022/12/22 10:01:42;;;;;;;;;;;5.80;99.90;;;;;;5048389;28;19924;-94
2022/12/22 10:04:08;;;;;;;;;;;5.80;99.90;;;;;;5049901;28;20071;-94
2022/12/22 10:06:42;;;;;;;;;;;5.90;99.90;;;;;;5051871;28;19932;-94
2022/12/22 10:09:25;;;;;;;;;;;6.00;99.90;;;;;;5062524;28;19925;-94
2022/12/22 10:11:58;;;;;;;;;;;6.10;99.90;;;;;;5046653;28;19936;-95
2022/12/22 10:14:34;;;;;;;;;;;6.20;99.90;;;;;;5044758;28;19925;-94
2022/12/22 10:17:18;;;;;;;;;;;6.20;99.90;;;;;;5047727;28;19955;-93
2022/12/22 10:19:44;;;;;;;;;;;6.30;99.90;;;;;;5057762;28;19928;-94
2022/12/22 10:22:40;;;;;;;;;;;5.50;99.90;;;;;;5028307;28;19925;-96
2022/12/22 10:25:22;;;;;;;;;;;6.30;99.90;;;;;;4945173;28;19940;-94
2022/12/22 10:27:48;;;;;;;;;;;6.40;99.90;;;;;;5044724;28;19984;-93
2022/12/22 10:30:22;;;;;;;;;;;6.50;99.90;;;;;;5030128;28;19924;-93
2022/12/22 10:33:02;;;;;;;;;;;5.40;99.90;;;;;;5046019;28;20353;-95
2022/12/22 10:35:46;;;;;;;;;;;6.60;99.90;;;;;;5042222;28;19925;-91
2022/12/22 10:38:29;;;;;;;;;;;6.70;99.90;;;;;;5049282;28;19936;-96
2022/12/22 10:40:58;;;;;;;;;;;6.70;99.90;;;;;;5068282;28;19957;-94
2022/12/22 10:43:28;;;;;;;;;;;6.80;99.90;;;;;;5066503;28;19994;-95
2022/12/22 10:45:55;;;;;;;;;;;6.80;99.90;;;;;;5047583;28;19986;-93
2022/12/22 10:48:31;;;;;;;;;;;6.90;99.90;;;;;;5029027;28;20015;-94
2022/12/22 10:50:58;;;;;;;;;;;6.90;99.90;;;;;;5041182;28;19983;-94
2022/12/22 10:53:41;;;;;;;;;;;7.00;99.90;;;;;;5043608;28;19925;-96
2022/12/22 10:56:15;;;;;;;;;;;7.10;99.90;;;;;;5047400;28;19987;-94
2022/12/22 10:59:07;;;;;;;;;;;7.00;99.90;;;;;;5038501;28;20020;-96
2022/12/22 11:01:34;;;;;;;;;;;7.00;99.90;;;;;;5020505;28;19984;-93
2022/12/22 11:04:19;;;;;;;;;;;5.90;99.90;;;;;;5038526;28;19925;-94
2022/12/22 11:06:45;;;;;;;;;;;6.80;99.90;;;;;;5034555;28;19925;-95
2022/12/22 11:09:11;;;;;;;;;;;6.80;99.90;;;;;;5010301;28;19925;-95
2022/12/22 11:11:43;;;;;;;;;;;6.80;99.90;;;;;;5004273;28;20418;-94
2022/12/22 11:14:28;;;;;;;;;;;6.80;99.90;;;;;;5025485;28;20189;-95
2022/12/22 11:16:54;;;;;;;;;;;6.90;99.90;;;;;;4987979;28;19931;-94
2022/12/22 11:19:26;;;;;;;;;;;6.90;99.90;;;;;;5022626;28;19963;-95
2022/12/22 11:22:11;;;;;;;;;;;6.90;99.90;;;;;;5048158;28;19925;-95
2022/12/22 11:24:55;;;;;;;;;;;7.00;99.90;;;;;;5034833;28;19928;-93
2022/12/22 11:27:40;;;;;;;;;;;7.00;99.90;;;;;;5038471;28;19924;-94
2022/12/22 11:30:17;;;;;;;;;;;6.40;99.90;;;;;;5036200;28;19975;-93
2022/12/22 11:33:00;;;;;;;;;;;7.00;99.90;;;;;;5014433;28;19999;-93
2022/12/22 11:35:26;;;;;;;;;;;7.10;99.90;;;;;;5016803;28;19933;-96
2022/12/22 11:38:10;;;;;;;;;;;7.10;99.90;;;;;;5033059;28;20115;-93
2022/12/22 11:40:47;;;;;;;;;;;7.00;99.90;;;;;;5047917;28;19936;-94
2022/12/22 11:43:13;;;;;;;;;;;7.10;99.90;;;;;;5023181;28;19924;-94
2022/12/22 11:45:48;;;;;;;;;;;7.10;99.90;;;;;;5021189;28;20377;-94
2022/12/22 11:48:16;;;;;;;;;;;7.10;99.90;;;;;;5024333;28;20038;-96
2022/12/22 11:50:44;;;;;;;;;;;7.20;99.90;;;;;;5022737;28;19951;-94
2022/12/22 11:53:14;;;;;;;;;;;7.30;99.90;;;;;;5008803;28;19936;-94
2022/12/22 11:56:00;;;;;;;;;;;7.30;99.90;;;;;;5027193;28;19932;-95
2022/12/22 11:58:55;;;;;;;;;;;7.30;99.90;;;;;;4990331;28;19929;-94
2022/12/22 12:01:41;;;;;;;;;;;7.30;99.90;;;;;;5001911;28;19925;-95
2022/12/22 12:04:19;;;;;;;;;;;7.40;99.90;;;;;;5051371;28;19924;-94
2022/12/22 12:07:03;;;;;;;;;;;7.40;99.90;;;;;;5053505;28;19924;-94
2022/12/22 12:09:28;;;;;;;;;;;7.40;99.90;;;;;;5050317;28;20742;-94
2022/12/22 12:12:17;;;;;;;;;;;7.50;99.90;;;;;;5054431;28;19925;-95
2022/12/22 12:14:50;;;;;;;;;;;7.50;99.90;;;;;;5040997;28;19935;-95
2022/12/22 12:17:48;;;;;;;;;;;7.50;99.90;;;;;;5032087;28;20092;-92
2022/12/22 12:20:23;;;;;;;;;;;7.50;99.90;;;;;;5023324;28;19924;-96
2022/12/22 12:22:48;;;;;;;;;;;7.60;99.90;;;;;;5053788;28;19963;-95
2022/12/22 12:25:17;;;;;;;;;;;7.60;99.90;;;;;;5040475;28;19933;-95
2022/12/22 12:27:43;;;;;;;;;;;7.60;99.90;;;;;;5045330;28;19930;-94
2022/12/22 12:30:13;;;;;;;;;;;7.60;99.90;;;;;;5056202;28;20403;-94
2022/12/22 12:32:42;;;;;;;;;;;7.60;99.90;;;;;;5048472;28;19929;-95
2022/12/22 12:35:26;;;;;;;;;;;7.60;99.90;;;;;;5052120;28;19924;-94
2022/12/22 12:37:55;;;;;;;;;;;7.60;99.90;;;;;;5037479;28;19944;-94
2022/12/22 12:40:50;;;;;;;;;;;7.60;99.90;;;;;;5024781;28;19926;-93
2022/12/22 12:43:16;;;;;;;;;;;7.70;99.90;;;;;;5019549;28;19933;-93
2022/12/22 12:45:43;;;;;;;;;;;7.70;99.90;;;;;;5041428;28;19988;-94
2022/12/22 12:48:24;;;;;;;;;;;7.70;99.90;;;;;;5043590;28;19996;-94
2022/12/22 12:50:49;;;;;;;;;;;7.60;99.90;;;;;;5068578;28;19963;-94
2022/12/22 12:53:15;;;;;;;;;;;7.60;99.90;;;;;;5047380;28;19925;-95
2022/12/22 12:55:51;;;;;;;;;;;7.70;99.90;;;;;;5029327;28;19925;-94
2022/12/22 12:58:38;;;;;;;;;;;7.60;99.90;;;;;;5046788;28;19932;-94
2022/12/22 13:01:11;;;;;;;;;;;7.60;99.90;;;;;;5039528;28;19933;-92
2022/12/22 13:03:39;;;;;;;;;;;7.60;99.90;;;;;;5031579;28;20002;-95
2022/12/22 13:06:06;;;;;;;;;;;7.60;99.90;;;;;;5032306;28;20377;-93
2022/12/22 13:08:52;;;;;;;;;;;7.60;99.90;;;;;;5018424;28;19937;-94
2022/12/22 13:11:18;;;;;;;;;;;7.60;99.90;;;;;;4992331;28;19974;-95
2022/12/22 13:13:45;;;;;;;;;;;7.70;99.90;;;;;;4982938;28;20001;-95
2022/12/22 13:16:10;;;;;;;;;;;7.80;99.90;;;;;;5032635;28;20116;-93
2022/12/22 13:18:43;;;;;;;;;;;7.90;99.90;;;;;;5035099;28;19926;-93
2022/12/22 13:21:12;;;;;;;;;;;7.90;99.90;;;;;;5031270;28;20018;-95
2022/12/22 13:23:39;;;;;;;;;;;7.90;99.90;;;;;;4965490;28;19926;-94
2022/12/22 13:26:06;;;;;;;;;;;7.70;99.90;;;;;;5027022;28;19959;-93
2022/12/22 13:28:34;;;;;;;;;;;7.90;99.90;;;;;;5027699;28;20365;-95
2022/12/22 13:31:03;;;;;;;;;;;8.00;99.90;;;;;;5047323;28;19948;-94
2022/12/22 13:33:31;;;;;;;;;;;8.10;99.90;;;;;;5032310;28;20018;-93
2022/12/22 13:35:57;;;;;;;;;;;8.10;99.90;;;;;;5027355;28;19985;-93
2022/12/22 13:38:30;;;;;;;;;;;8.10;99.90;;;;;;5009765;28;19980;-93
2022/12/22 13:40:57;;;;;;;;;;;8.10;99.90;;;;;;5031578;28;20108;-92
2022/12/22 13:43:23;;;;;;;;;;;8.10;99.90;;;;;;5034180;28;20451;-94
2022/12/22 13:45:50;;;;;;;;;;;8.10;99.90;;;;;;4965298;28;20013;-92
2022/12/22 13:48:17;;;;;;;;;;;8.10;99.90;;;;;;5040611;28;19926;-93
2022/12/22 13:50:45;;;;;;;;;;;8.10;99.90;;;;;;5029564;28;19926;-93
2022/12/22 13:53:14;;;;;;;;;;;8.10;99.90;;;;;;5030354;28;19926;-93
2022/12/22 13:55:40;;;;;;;;;;;8.20;99.90;;;;;;5045119;28;19926;-92
2022/12/22 13:58:08;;;;;;;;;;;8.10;99.90;;;;;;5014766;28;19926;-94
2022/12/22 14:00:33;;;;;;;;;;;8.20;99.90;;;;;;5026405;28;19927;-93
2022/12/22 14:02:59;;;;;;;;;;;8.20;99.90;;;;;;5029660;28;19937;-93
2022/12/22 14:05:29;;;;;;;;;;;8.20;99.90;;;;;;5031048;28;19975;-94
2022/12/22 14:08:05;;;;;;;;;;;8.20;99.90;;;;;;5025677;28;20035;-92
2022/12/22 14:10:40;;;;;;;;;;;8.20;99.90;;;;;;5036814;28;19933;-93
2022/12/22 14:13:11;;;;;;;;;;;8.20;99.90;;;;;;5057344;28;19937;-94
2022/12/22 14:15:36;;;;;;;;;;;8.20;99.90;;;;;;5041329;28;19926;-92
2022/12/22 14:18:02;;;;;;;;;;;8.20;99.90;;;;;;5017125;28;19941;-93
2022/12/22 14:20:31;;;;;;;;;;;8.20;99.90;;;;;;5030360;28;19997;-94
2022/12/22 14:23:00;;;;;;;;;;;8.20;99.90;;;;;;5035857;28;19929;-93
2022/12/22 14:25:29;;;;;;;;;;;8.20;99.90;;;;;;5046176;28;20236;-93
2022/12/22 14:27:55;;;;;;;;;;;8.20;99.90;;;;;;5042984;28;19933;-93
2022/12/22 14:30:40;;;;;;;;;;;8.30;99.90;;;;;;4971094;28;19983;-93
2022/12/22 14:33:15;;;;;;;;;;;8.20;99.90;;;;;;4979712;28;19926;-92
2022/12/22 14:35:41;;;;;;;;;;;8.30;99.90;;;;;;5034035;28;20002;-94
2022/12/22 14:38:18;;;;;;;;;;;8.20;99.90;;;;;;5028642;28;19934;-92
2022/12/22 14:40:44;;;;;;;;;;;8.20;99.90;;;;;;5028173;28;19965;-93
2022/12/22 14:43:18;;;;;;;;;;;8.20;99.90;;;;;;5028523;28;19933;-94
2022/12/22 14:45:46;;;;;;;;;;;8.20;99.90;;;;;;5029362;28;19948;-94
2022/12/22 14:48:27;;;;;;;;;;;8.10;99.90;;;;;;5030301;28;19933;-93
2022/12/22 14:50:53;;;;;;;;;;;8.10;99.90;;;;;;5031301;28;19926;-93
2022/12/22 14:53:27;;;;;;;;;;;8.00;99.90;;;;;;5004971;28;19972;-94
2022/12/22 14:55:53;;;;;;;;;;;8.00;99.90;;;;;;4956869;28;19926;-93
2022/12/22 14:58:31;;;;;;;;;;;7.90;99.90;;;;;;4954847;28;19938;-93
2022/12/22 15:01:16;;;;;;;;;;;7.90;99.90;;;;;;5023990;28;20001;-95
2022/12/22 15:03:42;;;;;;;;;;;7.90;99.90;;;;;;5032404;28;19977;-94
2022/12/22 15:06:33;;;;;;;;;;;7.80;99.90;;;;;;5032155;28;19926;-95
2022/12/22 15:09:01;;;;;;;;;;;7.60;99.90;;;;;;5058058;28;19945;-92
2022/12/22 15:11:29;;;;;;;;;;;6.80;99.90;;;;;;5055274;28;20027;-94
2022/12/22 15:13:54;;;;;;;;;;;7.70;99.90;;;;;;5029586;28;19949;-94
2022/12/22 15:16:21;;;;;;;;;;;7.70;99.90;;;;;;5030903;28;19926;-94
2022/12/22 15:18:48;;;;;;;;;;;7.60;99.90;;;;;;5017981;28;20020;-92
2022/12/22 15:21:16;;;;;;;;;;;7.60;99.90;;;;;;5043847;28;19940;-94
2022/12/22 15:23:41;;;;;;;;;;;7.60;99.90;;;;;;5028386;28;19926;-93
2022/12/22 15:26:07;;;;;;;;;;;7.60;99.90;;;;;;5029028;28;19973;-96
2022/12/22 15:28:33;;;;;;;;;;;7.60;99.90;;;;;;5030159;28;20000;-93
2022/12/22 15:30:59;;;;;;;;;;;7.60;99.90;;;;;;5037226;28;19937;-93
2022/12/22 15:33:25;;;;;;;;;;;7.60;99.90;;;;;;5028405;28;19926;-95
2022/12/22 15:35:51;;;;;;;;;;;7.70;99.90;;;;;;5031812;28;20014;-93
2022/12/22 15:38:18;;;;;;;;;;;7.60;99.90;;;;;;5023717;28;19990;-93
2022/12/22 15:40:44;;;;;;;;;;;7.60;99.90;;;;;;5017011;28;19992;-93
2022/12/22 15:43:10;;;;;;;;;;;7.50;99.90;;;;;;5031130;28;20018;-92
2022/12/22 15:45:36;;;;;;;;;;;7.50;99.90;;;;;;5012921;28;19931;-94
2022/12/22 15:48:03;;;;;;;;;;;7.50;99.90;;;;;;5023697;28;19932;-93
2022/12/22 15:50:31;;;;;;;;;;;7.50;99.90;;;;;;5029157;28;19926;-95
2022/12/22 15:52:57;;;;;;;;;;;7.50;99.90;;;;;;5009510;28;19988;-94
2022/12/22 15:55:23;;;;;;;;;;;6.80;99.90;;;;;;5026808;28;19961;-94
2022/12/22 15:57:51;;;;;;;;;;;7.50;99.90;;;;;;4968690;28;19927;-93
2022/12/22 16:00:17;;;;;;;;;;;7.40;99.90;;;;;;5030130;28;20013;-93
2022/12/22 16:02:43;;;;;;;;;;;7.40;99.90;;;;;;5024484;28;20377;-94
2022/12/22 16:05:09;;;;;;;;;;;7.30;99.90;;;;;;5026080;28;19925;-93
2022/12/22 16:07:35;;;;;;;;;;;7.80;99.90;;;;;;5031204;28;19968;-93
2022/12/22 16:10:01;;;;;;;;;;;7.30;99.90;;;;;;5025599;28;19932;-92
2022/12/22 16:12:28;;;;;;;;;;;7.30;99.90;;;;;;5027064;28;19925;-94
2022/12/22 16:14:54;;;;;;;;;;;7.20;99.90;;;;;;5027592;28;19925;-94
2022/12/22 16:17:21;;;;;;;;;;;7.20;99.90;;;;;;5032666;28;19925;-92
2022/12/22 16:19:47;;;;;;;;;;;7.20;99.90;;;;;;5030846;28;19925;-92
2022/12/22 16:22:14;;;;;;;;;;;7.20;99.90;;;;;;5036698;28;19940;-92
2022/12/22 16:24:41;;;;;;;;;;;7.20;99.90;;;;;;5032233;28;19963;-93
2022/12/22 16:27:08;;;;;;;;;;;7.10;99.90;;;;;;5039548;28;19931;-94
2022/12/22 16:29:34;;;;;;;;;;;7.10;99.90;;;;;;5027479;28;19931;-93
2022/12/22 16:32:13;;;;;;;;;;;7.10;99.90;;;;;;5032813;28;19988;-94
2022/12/22 16:34:39;;;;;;;;;;;7.10;99.90;;;;;;5039897;28;19956;-95
2022/12/22 16:37:04;;;;;;;;;;;6.20;99.90;;;;;;5031373;28;19932;-93
2022/12/22 16:39:30;;;;;;;;;;;6.50;99.90;;;;;;5023756;28;19987;-93
2022/12/22 16:41:55;;;;;;;;;;;7.10;99.90;;;;;;5023973;28;19928;-93
2022/12/22 16:44:22;;;;;;;;;;;7.10;99.90;;;;;;5018635;28;19964;-94
2022/12/22 16:46:48;;;;;;;;;;;7.10;99.90;;;;;;5026344;28;20346;-95
2022/12/22 16:49:16;;;;;;;;;;;7.10;99.90;;;;;;5020270;28;19925;-93
2022/12/22 16:51:47;;;;;;;;;;;7.10;99.90;;;;;;5033312;28;19931;-93
2022/12/22 16:54:13;;;;;;;;;;;6.30;99.90;;;;;;5033906;28;19925;-93
2022/12/22 16:56:41;;;;;;;;;;;7.10;99.90;;;;;;5028667;28;19931;-92
2022/12/22 16:59:07;;;;;;;;;;;7.10;99.90;;;;;;5024204;28;19925;-94
2022/12/22 17:01:42;;;;;;;;;;;7.10;99.90;;;;;;5030884;28;19925;-94
2022/12/22 17:04:10;;;;;;;;;;;7.10;99.90;;;;;;5027698;28;19925;-92
2022/12/22 17:06:36;;;;;;;;;;;7.00;99.90;;;;;;5031324;28;19955;-93
2022/12/22 17:09:03;;;;;;;;;;;7.00;99.90;;;;;;5017212;28;19931;-94
2022/12/22 17:11:31;;;;;;;;;;;7.00;99.90;;;;;;5022781;28;19988;-92
2022/12/22 17:14:05;;;;;;;;;;;7.00;99.90;;;;;;5006856;28;19925;-93
2022/12/22 17:16:30;;;;;;;;;;;7.00;99.90;;;;;;5017199;28;20020;-93
2022/12/22 17:18:56;;;;;;;;;;;7.00;99.90;;;;;;5038573;28;19924;-94
2022/12/22 17:21:22;;;;;;;;;;;7.00;99.90;;;;;;5028751;28;19925;-93
2022/12/22 17:23:50;;;;;;;;;;;7.00;99.90;;;;;;5011316;28;19957;-95
2022/12/22 17:26:17;;;;;;;;;;;7.10;99.90;;;;;;5029909;28;19991;-93
2022/12/22 17:28:43;;;;;;;;;;;7.10;99.90;;;;;;5033411;28;20370;-93
2022/12/22 17:31:16;;;;;;;;;;;7.10;99.90;;;;;;5031652;28;19956;-93
2022/12/22 17:33:41;;;;;;;;;;;7.10;99.90;;;;;;5029769;28;19932;-94
2022/12/22 17:36:27;;;;;;;;;;;7.10;99.90;;;;;;5027474;28;19924;-93
2022/12/22 17:38:53;;;;;;;;;;;7.10;99.90;;;;;;5049426;28;19925;-94
2022/12/22 17:41:19;;;;;;;;;;;7.10;99.90;;;;;;5010921;28;19947;-92
2022/12/22 17:43:45;;;;;;;;;;;7.00;99.90;;;;;;5029344;28;19971;-92
2022/12/22 17:46:12;;;;;;;;;;;7.00;99.90;;;;;;5026518;28;20027;-93
2022/12/22 17:48:38;;;;;;;;;;;7.00;99.90;;;;;;5023982;28;19975;-93
2022/12/22 17:51:04;;;;;;;;;;;6.90;99.90;;;;;;5025634;28;20442;-94
2022/12/22 17:53:29;;;;;;;;;;;6.90;99.90;;;;;;5025799;28;19925;-94
2022/12/22 17:55:56;;;;;;;;;;;6.90;99.90;;;;;;5037530;28;19966;-94
2022/12/22 17:58:21;;;;;;;;;;;6.80;99.90;;;;;;5018403;28;20281;-94
2022/12/22 18:00:47;;;;;;;;;;;6.80;99.90;;;;;;5031096;28;19925;-94
2022/12/22 18:03:13;;;;;;;;;;;6.80;99.90;;;;;;5014147;28;19976;-94
2022/12/22 18:05:44;;;;;;;;;;;7.40;99.90;;;;;;5032849;28;19966;-95
2022/12/22 18:08:14;;;;;;;;;;;6.80;99.90;;;;;;5030978;28;19969;-93
2022/12/22 18:10:41;;;;;;;;;;;6.70;99.90;;;;;;5019298;28;19942;-93
2022/12/22 18:13:18;;;;;;;;;;;6.70;99.90;;;;;;5035463;28;20005;-94
2022/12/22 18:15:44;;;;;;;;;;;6.60;99.90;;;;;;4965654;28;19970;-94
2022/12/22 18:18:13;;;;;;;;;;;6.60;99.90;;;;;;5035955;28;19933;-93
2022/12/22 18:20:39;;;;;;;;;;;6.60;99.90;;;;;;5028647;28;19926;-93